createdAt,value
2019-04-22T00:02:17.494Z,99.90
2019-04-22T00:06:00.390Z,99.90
2019-04-22T00:09:30.926Z,99.70
2019-04-22T00:13:02.882Z,99.90
2019-04-22T00:16:32.058Z,99.90
2019-04-22T00:19:55.606Z,99.90
2019-04-22T00:23:13.184Z,99.90
2019-04-22T00:26:44.406Z,99.90
2019-04-22T00:30:15.481Z,99.90
2019-04-22T00:33:31.251Z,99.90
2019-04-22T00:36:54.834Z,99.90
2019-04-22T00:40:21.347Z,99.90
2019-04-22T00:43:51.108Z,99.90
2019-04-22T00:47:16.386Z,99.90
2019-04-22T00:50:44.321Z,99.90
2019-04-22T00:54:03.819Z,99.90
2019-04-22T00:57:28.449Z,99.90
2019-04-22T01:00:54.225Z,99.90
2019-04-22T01:04:31.142Z,99.90
2019-04-22T01:07:44.565Z,99.90
2019-04-22T01:11:21.449Z,99.90
2019-04-22T01:14:38.280Z,99.90
2019-04-22T01:17:57.882Z,99.90
2019-04-22T01:21:36.376Z,99.90
2019-04-22T01:24:50.257Z,99.90
2019-04-22T01:28:10.873Z,99.90
2019-04-22T01:31:23.945Z,99.90
2019-04-22T01:34:57.591Z,99.90
2019-04-22T01:38:31.353Z,99.90
2019-04-22T01:42:10.729Z,99.90
2019-04-22T01:45:31.300Z,99.90
2019-04-22T01:48:54.280Z,99.90
2019-04-22T01:52:15.765Z,99.90
2019-04-22T01:55:45.328Z,99.90
2019-04-22T01:58:59.014Z,99.90
2019-04-22T02:02:40.108Z,99.90
2019-04-22T02:06:02.349Z,99.90
2019-04-22T02:12:48.367Z,99.90
2019-04-22T02:16:15.147Z,99.90
2019-04-22T02:19:31.173Z,99.90
2019-04-22T02:23:45.845Z,99.90
2019-04-22T02:26:53.083Z,99.90
2019-04-22T02:30:05.826Z,99.90
2019-04-22T02:34:00.799Z,99.90
2019-04-22T02:37:02.852Z,99.90
2019-04-22T02:40:50.718Z,99.90
2019-04-22T02:43:59.581Z,99.90
2019-04-22T02:47:27.604Z,99.90
2019-04-22T02:50:43.774Z,99.90
2019-04-22T02:57:45.058Z,99.90
2019-04-22T03:01:05.954Z,99.90
2019-04-22T03:08:02.447Z,99.90
2019-04-22T03:11:19.179Z,99.90
2019-04-22T03:14:41.353Z,99.90
2019-04-22T03:18:09.725Z,99.90
2019-04-22T03:21:34.317Z,99.90
2019-04-22T03:25:23.661Z,99.90
2019-04-22T03:28:33.087Z,99.90
2019-04-22T03:39:06.848Z,99.90
2019-04-22T03:45:32.216Z,99.90
2019-04-22T03:49:23.121Z,99.90
2019-04-22T03:55:57.523Z,99.90
2019-04-22T03:59:29.095Z,99.90
2019-04-22T04:06:05.311Z,99.90
2019-04-22T04:09:42.617Z,99.90
2019-04-22T04:13:02.863Z,99.90
2019-04-22T04:16:29.978Z,99.90
2019-04-22T04:30:13.978Z,99.90
2019-04-22T04:33:51.856Z,99.90
2019-04-22T04:37:07.482Z,99.90
2019-04-22T04:40:28.798Z,99.90
2019-04-22T04:47:32.934Z,99.90
2019-04-22T04:57:56.974Z,99.90
2019-04-22T05:01:03.297Z,99.90
2019-04-22T05:04:25.538Z,99.90
2019-04-22T05:07:51.937Z,99.90
2019-04-22T05:11:16.098Z,99.90
2019-04-22T05:14:28.752Z,99.90
2019-04-22T05:24:56.884Z,99.90
2019-04-22T05:28:10.328Z,99.90
2019-04-22T05:31:37.198Z,99.90
2019-04-22T05:35:01.333Z,99.90
2019-04-22T05:38:33.194Z,99.90
2019-04-22T05:41:54.854Z,99.90
2019-04-22T05:45:23.146Z,99.90
2019-04-22T05:48:46.288Z,99.90
2019-04-22T05:52:11.110Z,99.90
2019-04-22T05:55:38.650Z,99.90
2019-04-22T06:02:45.635Z,99.90
2019-04-22T06:05:47.409Z,99.90
2019-04-22T06:09:16.972Z,99.90
2019-04-22T06:12:40.098Z,99.90
2019-04-22T06:16:09.351Z,99.90
2019-04-22T06:19:34.881Z,99.90
2019-04-22T06:26:46.267Z,99.90
2019-04-22T06:29:50.785Z,99.90
2019-04-22T06:36:45.212Z,99.90
2019-04-22T06:40:06.168Z,99.90
2019-04-22T06:47:00.115Z,99.90
2019-04-22T06:50:26.149Z,99.90
2019-04-22T06:53:47.283Z,99.90
2019-04-22T06:57:11.586Z,99.90
2019-04-22T07:00:36.712Z,99.90
2019-04-22T07:07:26.759Z,99.90
2019-04-22T07:10:50.742Z,99.90
2019-04-22T07:14:28.586Z,99.90
2019-04-22T07:21:05.940Z,99.90
2019-04-22T07:24:41.808Z,99.90
2019-04-22T07:28:01.408Z,99.90
2019-04-22T07:31:26.842Z,99.90
2019-04-22T07:34:52.460Z,99.90
2019-04-22T07:38:25.526Z,99.90
2019-04-22T07:41:49.023Z,99.90
2019-04-22T07:45:10.207Z,99.90
2019-04-22T07:48:43.413Z,99.90
2019-04-22T07:51:56.175Z,99.90
2019-04-22T07:55:30.586Z,99.90
2019-04-22T07:58:53.658Z,99.90
2019-04-22T08:02:16.037Z,99.90
2019-04-22T08:05:51.926Z,99.90
2019-04-22T08:12:51.922Z,99.90
2019-04-22T08:15:58.114Z,99.90
2019-04-22T08:22:51.048Z,99.90
2019-04-22T08:26:16.771Z,99.90
2019-04-22T08:29:46.955Z,99.90
2019-04-22T08:33:05.123Z,99.90
2019-04-22T08:36:32.346Z,99.90
2019-04-22T08:40:04.537Z,99.90
2019-04-22T08:43:26.796Z,99.90
2019-04-22T08:47:04.413Z,99.90
2019-04-22T08:50:16.500Z,99.90
2019-04-22T08:53:45.403Z,99.20
2019-04-22T08:56:56.940Z,99.20
2019-04-22T09:00:44.572Z,98.40
2019-04-22T09:03:52.463Z,98.40
2019-04-22T09:07:20.931Z,96.70
2019-04-22T09:11:07.770Z,97.50
2019-04-22T09:17:28.860Z,96.60
2019-04-22T09:20:58.823Z,95.30
2019-04-22T09:27:48.417Z,91.10
2019-04-22T09:31:11.803Z,90.10
2019-04-22T09:34:35.192Z,83.70
2019-04-22T09:38:12.064Z,79.60
2019-04-22T09:41:27.139Z,77.90
2019-04-22T09:45:06.055Z,74.40
2019-04-22T09:51:46.172Z,59.90
2019-04-22T09:58:31.687Z,54.50
2019-04-22T10:02:13.387Z,47.90
2019-04-22T10:05:21.179Z,39.60
2019-04-22T10:09:01.734Z,35.70
2019-04-22T10:12:19.086Z,33.00
2019-04-22T10:15:39.646Z,31.80
2019-04-22T10:19:04.204Z,31.50
2019-04-22T10:22:35.004Z,29.00
2019-04-22T10:25:57.112Z,28.10
2019-04-22T10:29:43.902Z,28.00
2019-04-22T10:33:03.005Z,26.30
2019-04-22T10:35:47.598Z,24.90
2019-04-22T10:39:12.555Z,25.40
2019-04-22T10:42:43.438Z,24.60
2019-04-22T10:46:08.108Z,25.90
2019-04-22T10:49:31.536Z,26.80
2019-04-22T10:52:55.344Z,28.00
2019-04-22T10:56:22.981Z,28.30
2019-04-22T10:59:46.863Z,27.20
2019-04-22T11:03:12.055Z,26.60
2019-04-22T11:06:41.006Z,27.90
2019-04-22T11:10:22.806Z,27.30
2019-04-22T11:13:31.629Z,25.60
2019-04-22T11:16:58.191Z,24.50
2019-04-22T11:20:21.775Z,23.70
2019-04-22T11:23:45.120Z,22.90
2019-04-22T11:27:08.402Z,22.60
2019-04-22T11:30:32.397Z,22.20
2019-04-22T11:33:56.691Z,22.20
2019-04-22T11:37:20.765Z,21.40
2019-04-22T11:40:49.950Z,21.40
2019-04-22T11:44:09.598Z,21.00
2019-04-22T11:47:33.371Z,20.80
2019-04-22T11:50:57.770Z,19.60
2019-04-22T11:54:22.982Z,20.30
2019-04-22T11:57:47.606Z,19.20
2019-04-22T12:01:12.666Z,19.90
2019-04-22T12:04:36.063Z,19.60
2019-04-22T12:08:03.007Z,19.60
2019-04-22T12:11:26.364Z,19.90
2019-04-22T12:14:50.085Z,19.80
2019-04-22T12:18:15.168Z,18.90
2019-04-22T12:21:39.367Z,19.40
2019-04-22T12:25:04.134Z,19.30
2019-04-22T12:28:28.710Z,18.70
2019-04-22T12:31:51.871Z,19.10
2019-04-22T12:35:17.755Z,18.10
2019-04-22T12:38:41.804Z,18.90
2019-04-22T12:42:06.195Z,18.30
2019-04-22T12:45:31.925Z,17.80
2019-04-22T12:48:56.257Z,17.30
2019-04-22T12:52:26.655Z,18.50
2019-04-22T12:55:45.930Z,18.20
2019-04-22T12:59:09.719Z,17.60
2019-04-22T13:02:33.182Z,17.10
2019-04-22T13:05:57.548Z,17.30
2019-04-22T13:09:21.242Z,17.60
2019-04-22T13:12:44.756Z,17.30
2019-04-22T13:16:09.033Z,17.70
2019-04-22T13:19:33.874Z,17.40
2019-04-22T13:22:57.107Z,17.10
2019-04-22T13:26:21.116Z,16.90
2019-04-22T13:29:46.567Z,17.30
2019-04-22T13:33:10.735Z,17.80
2019-04-22T13:36:34.640Z,17.50
2019-04-22T13:40:05.381Z,17.60
2019-04-22T13:43:34.745Z,18.00
2019-04-22T13:47:14.543Z,17.90
2019-04-22T13:57:32.815Z,17.80
2019-04-22T14:00:42.559Z,16.70
2019-04-22T14:04:32.553Z,17.50
2019-04-22T14:07:57.572Z,17.60
2019-04-22T14:11:34.155Z,17.80
2019-04-22T14:14:49.081Z,17.50
2019-04-22T14:18:12.867Z,17.40
2019-04-22T14:21:36.792Z,17.10
2019-04-22T14:25:02.877Z,17.70
2019-04-22T14:29:05.962Z,17.50
2019-04-22T14:32:32.349Z,17.30
2019-04-22T14:35:56.633Z,17.30
2019-04-22T14:39:19.888Z,17.40
2019-04-22T14:43:00.590Z,16.90
2019-04-22T14:46:35.983Z,17.60
2019-04-22T14:49:54.275Z,17.30
2019-04-22T14:53:21.037Z,17.30
2019-04-22T14:56:26.561Z,17.10
2019-04-22T14:59:50.177Z,17.50
2019-04-22T15:03:13.558Z,17.00
2019-04-22T15:06:37.952Z,17.50
2019-04-22T15:10:01.950Z,17.20
2019-04-22T15:13:25.396Z,17.80
2019-04-22T15:17:09.000Z,17.40
2019-04-22T15:20:41.975Z,17.60
2019-04-22T15:24:25.098Z,17.80
2019-04-22T15:27:51.074Z,17.00
2019-04-22T15:31:15.275Z,17.40
2019-04-22T15:34:39.501Z,17.50
2019-04-22T15:38:04.573Z,17.80
2019-04-22T15:41:30.415Z,17.30
2019-04-22T15:44:53.874Z,17.00
2019-04-22T15:48:17.117Z,17.20
2019-04-22T15:51:40.926Z,17.20
2019-04-22T15:55:04.863Z,17.00
2019-04-22T15:58:30.260Z,17.90
2019-04-22T16:01:58.168Z,17.40
2019-04-22T16:05:18.359Z,17.70
2019-04-22T16:08:41.457Z,17.50
2019-04-22T16:12:16.191Z,17.60
2019-04-22T16:15:30.739Z,17.90
2019-04-22T16:18:54.356Z,17.70
2019-04-22T16:22:19.728Z,17.90
2019-04-22T16:25:56.042Z,18.80
2019-04-22T16:29:19.450Z,20.30
2019-04-22T16:32:43.519Z,22.10
2019-04-22T16:36:07.251Z,22.90
2019-04-22T16:39:32.967Z,23.50
2019-04-22T16:42:59.265Z,24.00
2019-04-22T16:46:21.815Z,23.70
2019-04-22T16:49:45.697Z,24.80
2019-04-22T16:53:10.218Z,25.70
2019-04-22T16:56:35.650Z,25.70
2019-04-22T17:00:00.533Z,25.80
2019-04-22T17:03:42.819Z,25.90
2019-04-22T17:07:12.363Z,25.80
2019-04-22T17:10:35.727Z,26.20
2019-04-22T17:13:59.399Z,26.60
2019-04-22T17:17:24.515Z,27.00
2019-04-22T17:20:48.736Z,27.90
2019-04-22T17:24:12.084Z,28.10
2019-04-22T17:27:35.272Z,28.70
2019-04-22T17:31:01.793Z,28.60
2019-04-22T17:34:27.529Z,28.90
2019-04-22T17:38:01.758Z,29.30
2019-04-22T17:41:33.115Z,29.80
2019-04-22T17:45:38.919Z,29.80
2019-04-22T17:49:04.348Z,29.70
2019-04-22T17:52:30.371Z,30.40
2019-04-22T17:56:00.606Z,30.40
2019-04-22T17:59:25.038Z,30.30
2019-04-22T18:02:45.875Z,30.80
2019-04-22T18:05:59.550Z,30.90
2019-04-22T18:10:10.704Z,30.60
2019-04-22T18:13:14.018Z,30.90
2019-04-22T18:16:30.525Z,31.10
2019-04-22T18:19:51.875Z,31.90
2019-04-22T18:23:09.649Z,32.70
2019-04-22T18:26:49.754Z,32.20
2019-04-22T18:30:09.234Z,33.10
2019-04-22T18:33:37.115Z,33.50
2019-04-22T18:37:01.682Z,34.50
2019-04-22T18:40:30.975Z,35.40
2019-04-22T18:43:58.777Z,35.70
2019-04-22T18:47:18.585Z,36.30
2019-04-22T18:50:56.289Z,36.70
2019-04-22T18:54:36.234Z,37.10
2019-04-22T18:57:59.110Z,37.70
2019-04-22T19:01:10.251Z,37.70
2019-04-22T19:04:44.362Z,38.30
2019-04-22T19:08:29.256Z,38.30
2019-04-22T19:12:01.797Z,38.20
2019-04-22T19:15:22.657Z,38.60
2019-04-22T19:18:41.505Z,38.50
2019-04-22T19:22:02.209Z,38.40
2019-04-22T19:25:23.897Z,39.30
2019-04-22T19:28:58.794Z,38.80
2019-04-22T19:32:21.104Z,42.00
2019-04-22T19:35:40.049Z,45.60
2019-04-22T19:39:07.998Z,44.70
2019-04-22T19:46:00.453Z,44.00
2019-04-22T19:49:33.328Z,41.30
2019-04-22T19:52:50.046Z,41.10
2019-04-22T19:56:14.737Z,41.40
2019-04-22T19:59:45.501Z,40.10
2019-04-22T20:03:37.707Z,40.80
2019-04-22T20:06:53.394Z,39.50
2019-04-22T20:10:26.512Z,41.50
2019-04-22T20:13:55.734Z,41.50
2019-04-22T20:17:18.704Z,41.90
2019-04-22T20:20:44.654Z,41.60
2019-04-22T20:23:55.933Z,40.70
2019-04-22T20:27:39.248Z,39.40
2019-04-22T20:30:55.494Z,39.50
2019-04-22T20:34:23.929Z,39.20
2019-04-22T20:37:54.878Z,39.50
2019-04-22T20:41:15.017Z,39.20
2019-04-22T20:44:47.291Z,40.30
2019-04-22T20:47:58.809Z,40.70
2019-04-22T20:51:45.912Z,41.10
2019-04-22T20:54:55.983Z,39.90
2019-04-22T20:58:21.246Z,39.00
2019-04-22T21:01:43.238Z,38.90
2019-04-22T21:05:00.155Z,39.70
2019-04-22T21:08:38.952Z,40.20
2019-04-22T21:11:57.773Z,40.60
2019-04-22T21:15:36.860Z,39.90
2019-04-22T21:18:46.296Z,41.00
2019-04-22T21:22:27.297Z,40.70
2019-04-22T21:25:39.601Z,40.60
2019-04-22T21:29:14.718Z,41.30
2019-04-22T21:32:42.036Z,41.10
2019-04-22T21:36:16.240Z,41.60
2019-04-22T21:39:27.459Z,41.20
2019-04-22T21:43:01.041Z,41.20
2019-04-22T21:46:22.333Z,41.10
2019-04-22T21:49:51.397Z,42.00
2019-04-22T21:53:14.495Z,42.00
2019-04-22T21:57:16.984Z,43.40
2019-04-22T22:00:43.230Z,44.00
2019-04-22T22:04:06.616Z,42.30
2019-04-22T22:07:13.561Z,42.10
2019-04-22T22:10:56.853Z,41.40
2019-04-22T22:14:16.720Z,41.70
2019-04-22T22:17:35.370Z,42.00
2019-04-22T22:21:30.928Z,42.40
2019-04-22T22:24:35.914Z,41.40
2019-04-22T22:28:00.955Z,41.40
2019-04-22T22:31:31.382Z,42.50
2019-04-22T22:34:52.077Z,42.50
2019-04-22T22:38:13.440Z,42.70
2019-04-22T22:41:18.407Z,42.60
2019-04-22T22:44:46.741Z,43.00
2019-04-22T22:48:34.875Z,43.80
2019-04-22T22:52:03.561Z,44.70
2019-04-22T22:55:22.262Z,43.90
2019-04-22T22:58:50.369Z,44.50
2019-04-22T23:02:09.657Z,44.60
2019-04-22T23:05:40.213Z,45.70
2019-04-22T23:09:04.449Z,45.70
2019-04-22T23:12:34.762Z,45.90
2019-04-22T23:15:47.732Z,47.10
2019-04-22T23:19:02.017Z,47.20
2019-04-22T23:22:36.147Z,48.00
2019-04-22T23:26:11.877Z,47.90
2019-04-22T23:29:47.540Z,47.90
2019-04-22T23:33:21.814Z,48.20
2019-04-22T23:37:04.385Z,49.20
2019-04-22T23:40:37.117Z,50.10
2019-04-22T23:44:02.061Z,50.30
2019-04-22T23:47:24.279Z,50.50
2019-04-22T23:50:54.146Z,50.60
2019-04-22T23:54:23.974Z,50.60
2019-04-22T23:57:46.571Z,50.40
